تقرير الطقس للمطار: الفرق بين النسختين

تم إضافة 1٬310 بايت ، ‏ قبل 5 سنوات
لا يوجد ملخص تحرير
(اضافة روابط داخلية)
* [[ضغط جوي|الضغط الجوي]] على مستوى سطح البحر.
* ملاحظات و معلومات أخرى.
 
==مثال==
=METAR DAAG 061930Z 05005KT 2000 -SHRA SCT030 BKN050 25/21 Q1016 NOSIG
الشرح:
* METAR : نوع التقرير
*DAAG رمز المطار حسب المنظمة الدولية للطيران المدني (هنا مطار الجزائر/
هواري بومدين).
* 061900Z : تارخ و ساعة التقرير ( اليوم 06 من الشهر الجاري و الساعة
السابع مساءا ، يرمز زولو Z الى التوقيت العالمي الموحد UTC).
* 05005KT : إتجاه الرياح 050 درجة و سرعتها 05 عقدة(KT).
* 2000 : الرؤية الأفقية 2000متر.
* -SHRA : زخات (SH = shower) مطر (RA = rain) ضعيفة (-).
* SCT030 : سحب متفرقة (SCT = scattered) على ارتفاع 3000 قدم.
* BKN050 : سحب متجزئة (BKN = broken) على ارتفاع 5000 قدم.
* 25/21 : درجة الحرارة + 25 درجة مئوية و نقطة الندى +21 درجة مئوية.
* Q1016 : الضغط الجوي (الوحدة هتوباسكال) على مستوى سطح البحر (QNH).
* NOSIG : لا تغير مرتقب للساعتين المقبلتين.
* = : نهاية التقرير.
كما يمكن أن يحتوى هذا النوع من التقرير على معلومات كثيرة أخرى حسب
الحالة.
 
 
مستخدم مجهول